sensor_id;sensor_type;location;lat;lon;timestamp;temperature;humidity
21502;DHT22;27639;48.674;9.242;2023-03-11T00:00:11;5.90;50.60
21502;DHT22;27639;48.674;9.242;2023-03-11T00:02:42;5.90;50.60
21502;DHT22;27639;48.674;9.242;2023-03-11T00:05:10;5.80;50.20
21502;DHT22;27639;48.674;9.242;2023-03-11T00:07:37;5.80;50.10
21502;DHT22;27639;48.674;9.242;2023-03-11T00:10:05;5.80;49.80
21502;DHT22;27639;48.674;9.242;2023-03-11T00:12:30;5.70;49.90
21502;DHT22;27639;48.674;9.242;2023-03-11T00:14:56;5.60;49.80
21502;DHT22;27639;48.674;9.242;2023-03-11T00:17:21;5.60;49.80
21502;DHT22;27639;48.674;9.242;2023-03-11T00:19:47;5.60;49.90
21502;DHT22;27639;48.674;9.242;2023-03-11T00:22:13;5.60;50.00
21502;DHT22;27639;48.674;9.242;2023-03-11T00:24:38;5.60;49.80
21502;DHT22;27639;48.674;9.242;2023-03-11T00:27:04;5.70;49.90
21502;DHT22;27639;48.674;9.242;2023-03-11T00:29:29;5.70;50.00
21502;DHT22;27639;48.674;9.242;2023-03-11T00:31:55;5.70;49.80
21502;DHT22;27639;48.674;9.242;2023-03-11T00:34:20;5.60;49.80
21502;DHT22;27639;48.674;9.242;2023-03-11T00:36:46;5.60;50.00
21502;DHT22;27639;48.674;9.242;2023-03-11T00:39:11;5.60;50.20
21502;DHT22;27639;48.674;9.242;2023-03-11T00:41:37;5.50;50.10
21502;DHT22;27639;48.674;9.242;2023-03-11T00:44:03;5.60;50.20
21502;DHT22;27639;48.674;9.242;2023-03-11T00:46:28;5.60;50.30
21502;DHT22;27639;48.674;9.242;2023-03-11T00:48:55;5.70;50.40
21502;DHT22;27639;48.674;9.242;2023-03-11T00:51:21;5.70;50.40
21502;DHT22;27639;48.674;9.242;2023-03-11T00:53:47;5.60;50.40
21502;DHT22;27639;48.674;9.242;2023-03-11T00:56:14;5.60;50.40
21502;DHT22;27639;48.674;9.242;2023-03-11T00:58:41;5.60;50.40
21502;DHT22;27639;48.674;9.242;2023-03-11T01:03:34;5.70;50.70
21502;DHT22;27639;48.674;9.242;2023-03-11T01:06:00;5.70;50.70
21502;DHT22;27639;48.674;9.242;2023-03-11T01:08:25;5.70;50.90
21502;DHT22;27639;48.674;9.242;2023-03-11T01:10:52;5.70;50.90
21502;DHT22;27639;48.674;9.242;2023-03-11T01:13:17;5.70;51.00
21502;DHT22;27639;48.674;9.242;2023-03-11T01:15:43;5.80;51.00
21502;DHT22;27639;48.674;9.242;2023-03-11T01:18:09;5.80;50.90
21502;DHT22;27639;48.674;9.242;2023-03-11T01:20:36;5.80;50.80
21502;DHT22;27639;48.674;9.242;2023-03-11T01:23:03;5.80;51.00
21502;DHT22;27639;48.674;9.242;2023-03-11T01:25:29;5.70;51.20
21502;DHT22;27639;48.674;9.242;2023-03-11T01:27:55;5.70;51.20
21502;DHT22;27639;48.674;9.242;2023-03-11T01:30:23;5.80;51.30
21502;DHT22;27639;48.674;9.242;2023-03-11T01:32:50;5.80;51.50
21502;DHT22;27639;48.674;9.242;2023-03-11T01:35:17;5.70;51.50
21502;DHT22;27639;48.674;9.242;2023-03-11T01:37:44;5.60;51.60
21502;DHT22;27639;48.674;9.242;2023-03-11T01:40:16;5.60;51.90
21502;DHT22;27639;48.674;9.242;2023-03-11T01:42:42;5.60;52.10
21502;DHT22;27639;48.674;9.242;2023-03-11T01:47:54;5.60;52.10
21502;DHT22;27639;48.674;9.242;2023-03-11T01:50:20;5.60;52.10
21502;DHT22;27639;48.674;9.242;2023-03-11T01:52:46;5.60;51.70
21502;DHT22;27639;48.674;9.242;2023-03-11T01:55:14;5.60;52.10
21502;DHT22;27639;48.674;9.242;2023-03-11T01:57:41;5.60;52.00
21502;DHT22;27639;48.674;9.242;2023-03-11T02:00:11;5.70;51.50
21502;DHT22;27639;48.674;9.242;2023-03-11T02:03:01;5.60;51.00
21502;DHT22;27639;48.674;9.242;2023-03-11T02:05:26;5.50;50.90
21502;DHT22;27639;48.674;9.242;2023-03-11T02:07:53;5.40;50.90
21502;DHT22;27639;48.674;9.242;2023-03-11T02:10:20;5.30;50.80
21502;DHT22;27639;48.674;9.242;2023-03-11T02:12:47;5.30;50.70
21502;DHT22;27639;48.674;9.242;2023-03-11T02:15:15;5.30;50.70
21502;DHT22;27639;48.674;9.242;2023-03-11T02:17:41;5.20;50.60
21502;DHT22;27639;48.674;9.242;2023-03-11T02:23:03;5.20;50.50
21502;DHT22;27639;48.674;9.242;2023-03-11T02:25:50;5.20;50.70
21502;DHT22;27639;48.674;9.242;2023-03-11T02:28:18;5.10;50.70
21502;DHT22;27639;48.674;9.242;2023-03-11T02:30:44;5.20;50.90
21502;DHT22;27639;48.674;9.242;2023-03-11T02:33:12;5.20;50.80
21502;DHT22;27639;48.674;9.242;2023-03-11T02:35:38;5.30;50.80
21502;DHT22;27639;48.674;9.242;2023-03-11T02:38:04;5.20;50.40
21502;DHT22;27639;48.674;9.242;2023-03-11T02:40:34;5.20;50.50
21502;DHT22;27639;48.674;9.242;2023-03-11T02:43:05;5.20;50.50
21502;DHT22;27639;48.674;9.242;2023-03-11T02:45:32;5.10;50.30
21502;DHT22;27639;48.674;9.242;2023-03-11T02:47:58;5.10;50.30
21502;DHT22;27639;48.674;9.242;2023-03-11T02:50:25;5.00;50.40
21502;DHT22;27639;48.674;9.242;2023-03-11T02:52:52;4.90;50.50
21502;DHT22;27639;48.674;9.242;2023-03-11T02:55:19;4.90;50.50
21502;DHT22;27639;48.674;9.242;2023-03-11T02:57:45;5.00;50.50
21502;DHT22;27639;48.674;9.242;2023-03-11T03:00:12;5.00;50.60
21502;DHT22;27639;48.674;9.242;2023-03-11T03:02:41;4.90;50.70
21502;DHT22;27639;48.674;9.242;2023-03-11T03:05:07;5.00;50.30
21502;DHT22;27639;48.674;9.242;2023-03-11T03:07:33;4.90;50.00
21502;DHT22;27639;48.674;9.242;2023-03-11T03:09:59;4.80;49.60
21502;DHT22;27639;48.674;9.242;2023-03-11T03:12:24;4.80;49.70
21502;DHT22;27639;48.674;9.242;2023-03-11T03:14:50;4.80;49.50
21502;DHT22;27639;48.674;9.242;2023-03-11T03:17:16;4.70;49.40
21502;DHT22;27639;48.674;9.242;2023-03-11T03:19:41;4.70;49.20
21502;DHT22;27639;48.674;9.242;2023-03-11T03:22:07;4.60;49.20
21502;DHT22;27639;48.674;9.242;2023-03-11T03:24:32;4.50;49.30
21502;DHT22;27639;48.674;9.242;2023-03-11T03:26:58;4.40;49.60
21502;DHT22;27639;48.674;9.242;2023-03-11T03:29:24;4.30;49.10
21502;DHT22;27639;48.674;9.242;2023-03-11T03:31:49;4.30;49.20
21502;DHT22;27639;48.674;9.242;2023-03-11T03:34:15;4.30;49.30
21502;DHT22;27639;48.674;9.242;2023-03-11T03:36:40;4.30;49.20
21502;DHT22;27639;48.674;9.242;2023-03-11T03:39:06;4.30;49.20
21502;DHT22;27639;48.674;9.242;2023-03-11T03:41:31;4.30;49.20
21502;DHT22;27639;48.674;9.242;2023-03-11T03:43:57;4.30;49.20
21502;DHT22;27639;48.674;9.242;2023-03-11T03:46:24;4.30;49.20
21502;DHT22;27639;48.674;9.242;2023-03-11T03:48:49;4.40;49.30
21502;DHT22;27639;48.674;9.242;2023-03-11T03:51:15;4.40;49.90
21502;DHT22;27639;48.674;9.242;2023-03-11T03:53:41;4.40;49.20
21502;DHT22;27639;48.674;9.242;2023-03-11T03:56:10;4.40;49.30
21502;DHT22;27639;48.674;9.242;2023-03-11T03:58:36;4.40;49.30
21502;DHT22;27639;48.674;9.242;2023-03-11T04:01:03;4.40;49.30
21502;DHT22;27639;48.674;9.242;2023-03-11T04:03:30;4.50;49.30
21502;DHT22;27639;48.674;9.242;2023-03-11T04:08:40;4.50;49.30
21502;DHT22;27639;48.674;9.242;2023-03-11T04:11:06;4.40;49.30
21502;DHT22;27639;48.674;9.242;2023-03-11T04:13:32;4.40;49.30
21502;DHT22;27639;48.674;9.242;2023-03-11T04:15:57;4.50;49.40
21502;DHT22;27639;48.674;9.242;2023-03-11T04:18:23;4.40;49.30
21502;DHT22;27639;48.674;9.242;2023-03-11T04:20:49;4.40;49.50
21502;DHT22;27639;48.674;9.242;2023-03-11T04:23:15;4.40;49.50
21502;DHT22;27639;48.674;9.242;2023-03-11T04:25:40;4.40;49.40
21502;DHT22;27639;48.674;9.242;2023-03-11T04:28:06;4.30;49.50
21502;DHT22;27639;48.674;9.242;2023-03-11T04:30:32;4.30;49.60
21502;DHT22;27639;48.674;9.242;2023-03-11T04:32:58;4.30;49.60
21502;DHT22;27639;48.674;9.242;2023-03-11T04:35:23;4.30;49.60
21502;DHT22;27639;48.674;9.242;2023-03-11T04:37:49;4.20;49.60
21502;DHT22;27639;48.674;9.242;2023-03-11T04:40:15;4.20;49.60
21502;DHT22;27639;48.674;9.242;2023-03-11T04:42:40;4.20;49.60
21502;DHT22;27639;48.674;9.242;2023-03-11T04:45:07;4.20;49.60
21502;DHT22;27639;48.674;9.242;2023-03-11T04:47:33;4.20;49.60
21502;DHT22;27639;48.674;9.242;2023-03-11T04:49:58;4.20;49.60
21502;DHT22;27639;48.674;9.242;2023-03-11T04:52:24;4.10;49.60
21502;DHT22;27639;48.674;9.242;2023-03-11T04:54:49;4.10;49.70
21502;DHT22;27639;48.674;9.242;2023-03-11T04:57:15;4.10;49.70
21502;DHT22;27639;48.674;9.242;2023-03-11T04:59:40;4.10;49.70
21502;DHT22;27639;48.674;9.242;2023-03-11T05:02:06;4.10;49.70
21502;DHT22;27639;48.674;9.242;2023-03-11T05:04:32;4.10;49.70
21502;DHT22;27639;48.674;9.242;2023-03-11T05:06:57;4.10;49.80
21502;DHT22;27639;48.674;9.242;2023-03-11T05:09:23;4.00;49.80
21502;DHT22;27639;48.674;9.242;2023-03-11T05:11:49;4.00;49.80
21502;DHT22;27639;48.674;9.242;2023-03-11T05:14:14;4.00;49.80
21502;DHT22;27639;48.674;9.242;2023-03-11T05:16:40;4.00;49.90
21502;DHT22;27639;48.674;9.242;2023-03-11T05:19:05;4.00;50.00
21502;DHT22;27639;48.674;9.242;2023-03-11T05:21:51;4.00;50.00
21502;DHT22;27639;48.674;9.242;2023-03-11T05:24:16;4.00;50.10
21502;DHT22;27639;48.674;9.242;2023-03-11T05:26:42;4.00;50.10
21502;DHT22;27639;48.674;9.242;2023-03-11T05:29:07;4.00;50.10
21502;DHT22;27639;48.674;9.242;2023-03-11T05:31:33;3.90;50.10
21502;DHT22;27639;48.674;9.242;2023-03-11T05:33:58;4.00;50.20
21502;DHT22;27639;48.674;9.242;2023-03-11T05:36:24;3.90;50.10
21502;DHT22;27639;48.674;9.242;2023-03-11T05:38:50;3.90;50.10
21502;DHT22;27639;48.674;9.242;2023-03-11T05:41:17;3.80;50.20
21502;DHT22;27639;48.674;9.242;2023-03-11T05:43:43;3.80;50.20
21502;DHT22;27639;48.674;9.242;2023-03-11T05:46:09;3.80;50.30
21502;DHT22;27639;48.674;9.242;2023-03-11T05:48:35;3.80;50.30
21502;DHT22;27639;48.674;9.242;2023-03-11T05:51:06;3.80;50.40
21502;DHT22;27639;48.674;9.242;2023-03-11T05:53:31;3.80;50.40
21502;DHT22;27639;48.674;9.242;2023-03-11T05:55:58;3.80;50.40
21502;DHT22;27639;48.674;9.242;2023-03-11T05:58:24;3.80;50.60
21502;DHT22;27639;48.674;9.242;2023-03-11T06:00:50;3.80;50.60
21502;DHT22;27639;48.674;9.242;2023-03-11T06:03:15;3.80;50.60
21502;DHT22;27639;48.674;9.242;2023-03-11T06:05:45;3.80;50.70
21502;DHT22;27639;48.674;9.242;2023-03-11T06:08:11;3.80;50.70
21502;DHT22;27639;48.674;9.242;2023-03-11T06:10:37;3.70;50.70
21502;DHT22;27639;48.674;9.242;2023-03-11T06:13:02;3.80;50.70
21502;DHT22;27639;48.674;9.242;2023-03-11T06:15:28;3.80;50.70
21502;DHT22;27639;48.674;9.242;2023-03-11T06:17:53;3.80;50.80
21502;DHT22;27639;48.674;9.242;2023-03-11T06:20:19;3.80;50.80
21502;DHT22;27639;48.674;9.242;2023-03-11T06:22:47;3.80;50.90
21502;DHT22;27639;48.674;9.242;2023-03-11T06:25:14;3.80;50.90
21502;DHT22;27639;48.674;9.242;2023-03-11T06:27:39;3.80;50.90
21502;DHT22;27639;48.674;9.242;2023-03-11T06:30:05;3.80;51.20
21502;DHT22;27639;48.674;9.242;2023-03-11T06:32:31;3.80;51.20
21502;DHT22;27639;48.674;9.242;2023-03-11T06:34:59;3.80;51.20
21502;DHT22;27639;48.674;9.242;2023-03-11T06:37:24;3.80;51.30
21502;DHT22;27639;48.674;9.242;2023-03-11T06:39:53;3.80;51.20
21502;DHT22;27639;48.674;9.242;2023-03-11T06:42:20;3.80;51.20
21502;DHT22;27639;48.674;9.242;2023-03-11T06:44:48;3.90;51.20
21502;DHT22;27639;48.674;9.242;2023-03-11T06:47:14;3.90;51.30
21502;DHT22;27639;48.674;9.242;2023-03-11T06:49:39;3.80;51.20
21502;DHT22;27639;48.674;9.242;2023-03-11T06:52:07;3.80;51.30
21502;DHT22;27639;48.674;9.242;2023-03-11T06:54:33;3.80;51.30
21502;DHT22;27639;48.674;9.242;2023-03-11T06:56:59;3.90;51.60
21502;DHT22;27639;48.674;9.242;2023-03-11T06:59:24;4.00;51.60
21502;DHT22;27639;48.674;9.242;2023-03-11T07:01:50;4.00;51.80
21502;DHT22;27639;48.674;9.242;2023-03-11T07:04:16;4.10;51.90
21502;DHT22;27639;48.674;9.242;2023-03-11T07:06:41;4.20;52.00
21502;DHT22;27639;48.674;9.242;2023-03-11T07:09:07;4.30;51.90
21502;DHT22;27639;48.674;9.242;2023-03-11T07:11:33;4.50;51.80
21502;DHT22;27639;48.674;9.242;2023-03-11T07:13:59;4.60;52.10
21502;DHT22;27639;48.674;9.242;2023-03-11T07:16:26;4.80;52.00
21502;DHT22;27639;48.674;9.242;2023-03-11T07:18:55;4.90;51.50
21502;DHT22;27639;48.674;9.242;2023-03-11T07:21:21;5.00;51.60
21502;DHT22;27639;48.674;9.242;2023-03-11T07:23:50;5.30;51.60
21502;DHT22;27639;48.674;9.242;2023-03-11T07:26:16;5.40;51.30
21502;DHT22;27639;48.674;9.242;2023-03-11T07:28:42;5.60;51.00
21502;DHT22;27639;48.674;9.242;2023-03-11T07:31:11;5.80;50.30
21502;DHT22;27639;48.674;9.242;2023-03-11T07:33:37;6.00;50.30
21502;DHT22;27639;48.674;9.242;2023-03-11T07:36:12;6.20;50.10
21502;DHT22;27639;48.674;9.242;2023-03-11T07:38:38;6.30;49.40
21502;DHT22;27639;48.674;9.242;2023-03-11T07:41:04;6.40;49.20
21502;DHT22;27639;48.674;9.242;2023-03-11T07:43:30;6.50;49.00
21502;DHT22;27639;48.674;9.242;2023-03-11T07:48:28;6.60;48.40
21502;DHT22;27639;48.674;9.242;2023-03-11T07:51:04;6.70;48.60
21502;DHT22;27639;48.674;9.242;2023-03-11T07:53:30;6.80;48.30
21502;DHT22;27639;48.674;9.242;2023-03-11T07:55:57;6.90;48.10
21502;DHT22;27639;48.674;9.242;2023-03-11T07:58:23;7.00;47.80
21502;DHT22;27639;48.674;9.242;2023-03-11T08:00:49;7.10;47.50
21502;DHT22;27639;48.674;9.242;2023-03-11T08:03:15;7.10;47.50
21502;DHT22;27639;48.674;9.242;2023-03-11T08:05:40;7.20;47.40
21502;DHT22;27639;48.674;9.242;2023-03-11T08:08:06;7.30;46.90
21502;DHT22;27639;48.674;9.242;2023-03-11T08:10:32;7.30;46.50
21502;DHT22;27639;48.674;9.242;2023-03-11T08:13:00;7.30;46.40
21502;DHT22;27639;48.674;9.242;2023-03-11T08:15:25;7.40;46.60
21502;DHT22;27639;48.674;9.242;2023-03-11T08:17:51;7.50;46.70
21502;DHT22;27639;48.674;9.242;2023-03-11T08:20:16;7.60;46.30
21502;DHT22;27639;48.674;9.242;2023-03-11T08:22:42;7.70;45.90
21502;DHT22;27639;48.674;9.242;2023-03-11T08:25:08;7.80;45.70
21502;DHT22;27639;48.674;9.242;2023-03-11T08:27:33;7.90;45.70
21502;DHT22;27639;48.674;9.242;2023-03-11T08:29:59;8.00;45.60
21502;DHT22;27639;48.674;9.242;2023-03-11T08:32:24;8.10;45.40
21502;DHT22;27639;48.674;9.242;2023-03-11T08:34:50;8.20;45.10
21502;DHT22;27639;48.674;9.242;2023-03-11T08:37:15;8.30;44.80
21502;DHT22;27639;48.674;9.242;2023-03-11T08:39:41;8.50;45.00
21502;DHT22;27639;48.674;9.242;2023-03-11T08:42:06;8.50;44.90
21502;DHT22;27639;48.674;9.242;2023-03-11T08:44:32;8.70;44.10
21502;DHT22;27639;48.674;9.242;2023-03-11T08:46:58;8.90;44.00
21502;DHT22;27639;48.674;9.242;2023-03-11T08:49:24;9.00;44.30
21502;DHT22;27639;48.674;9.242;2023-03-11T08:51:50;9.20;44.00
21502;DHT22;27639;48.674;9.242;2023-03-11T08:54:15;9.30;43.90
21502;DHT22;27639;48.674;9.242;2023-03-11T08:56:41;9.40;43.60
21502;DHT22;27639;48.674;9.242;2023-03-11T08:59:07;9.40;43.20
21502;DHT22;27639;48.674;9.242;2023-03-11T09:01:32;9.40;42.80
21502;DHT22;27639;48.674;9.242;2023-03-11T09:03:58;9.40;42.30
21502;DHT22;27639;48.674;9.242;2023-03-11T09:06:24;9.50;42.90
21502;DHT22;27639;48.674;9.242;2023-03-11T09:08:50;9.60;42.90
21502;DHT22;27639;48.674;9.242;2023-03-11T09:11:16;9.80;42.80
21502;DHT22;27639;48.674;9.242;2023-03-11T09:13:42;10.00;41.60
21502;DHT22;27639;48.674;9.242;2023-03-11T09:16:12;10.20;40.50
21502;DHT22;27639;48.674;9.242;2023-03-11T09:18:38;10.30;39.20
21502;DHT22;27639;48.674;9.242;2023-03-11T09:21:03;10.20;39.10
21502;DHT22;27639;48.674;9.242;2023-03-11T09:23:29;10.30;39.20
21502;DHT22;27639;48.674;9.242;2023-03-11T09:25:55;10.30;39.40
21502;DHT22;27639;48.674;9.242;2023-03-11T09:28:20;10.40;39.30
21502;DHT22;27639;48.674;9.242;2023-03-11T09:30:46;10.50;39.30
21502;DHT22;27639;48.674;9.242;2023-03-11T09:33:11;10.70;39.30
21502;DHT22;27639;48.674;9.242;2023-03-11T09:35:37;10.70;37.70
21502;DHT22;27639;48.674;9.242;2023-03-11T09:38:03;10.70;37.70
21502;DHT22;27639;48.674;9.242;2023-03-11T09:40:45;10.70;37.00
21502;DHT22;27639;48.674;9.242;2023-03-11T09:43:34;10.50;37.20
21502;DHT22;27639;48.674;9.242;2023-03-11T09:49:24;10.10;37.10
21502;DHT22;27639;48.674;9.242;2023-03-11T09:54:38;9.70;38.90
21502;DHT22;27639;48.674;9.242;2023-03-11T09:57:05;9.60;39.30
21502;DHT22;27639;48.674;9.242;2023-03-11T09:59:34;9.60;39.50
21502;DHT22;27639;48.674;9.242;2023-03-11T10:02:01;9.70;40.20
21502;DHT22;27639;48.674;9.242;2023-03-11T10:04:38;9.80;39.60
21502;DHT22;27639;48.674;9.242;2023-03-11T10:07:12;9.80;38.90
21502;DHT22;27639;48.674;9.242;2023-03-11T10:20:53;9.60;39.30
21502;DHT22;27639;48.674;9.242;2023-03-11T10:26:18;9.70;39.60
21502;DHT22;27639;48.674;9.242;2023-03-11T10:28:55;9.90;39.80
21502;DHT22;27639;48.674;9.242;2023-03-11T10:34:00;10.10;37.60
21502;DHT22;27639;48.674;9.242;2023-03-11T10:36:37;9.90;37.80
21502;DHT22;27639;48.674;9.242;2023-03-11T10:39:05;9.90;37.20
21502;DHT22;27639;48.674;9.242;2023-03-11T10:41:48;9.80;37.70
21502;DHT22;27639;48.674;9.242;2023-03-11T10:44:30;9.70;38.50
21502;DHT22;27639;48.674;9.242;2023-03-11T10:46:56;9.90;39.20
21502;DHT22;27639;48.674;9.242;2023-03-11T10:49:22;10.10;38.20
21502;DHT22;27639;48.674;9.242;2023-03-11T10:51:50;10.40;38.10
21502;DHT22;27639;48.674;9.242;2023-03-11T10:54:36;10.50;37.50
21502;DHT22;27639;48.674;9.242;2023-03-11T10:57:21;10.50;37.10
21502;DHT22;27639;48.674;9.242;2023-03-11T10:59:49;10.60;36.20
21502;DHT22;27639;48.674;9.242;2023-03-11T11:04:47;10.60;35.00
21502;DHT22;27639;48.674;9.242;2023-03-11T11:10:19;10.50;34.70
21502;DHT22;27639;48.674;9.242;2023-03-11T11:17:59;10.60;34.90
21502;DHT22;27639;48.674;9.242;2023-03-11T11:20:27;10.50;35.40
21502;DHT22;27639;48.674;9.242;2023-03-11T11:22:55;10.30;35.20
21502;DHT22;27639;48.674;9.242;2023-03-11T11:25:28;10.30;34.90
21502;DHT22;27639;48.674;9.242;2023-03-11T11:27:59;10.20;34.40
21502;DHT22;27639;48.674;9.242;2023-03-11T11:30:26;10.10;34.90
21502;DHT22;27639;48.674;9.242;2023-03-11T11:32:52;10.10;35.20
21502;DHT22;27639;48.674;9.242;2023-03-11T11:35:21;10.10;35.20
21502;DHT22;27639;48.674;9.242;2023-03-11T11:37:53;10.10;35.20
21502;DHT22;27639;48.674;9.242;2023-03-11T11:40:30;10.10;35.20
21502;DHT22;27639;48.674;9.242;2023-03-11T11:43:05;10.20;35.30
21502;DHT22;27639;48.674;9.242;2023-03-11T11:45:38;10.40;35.40
21502;DHT22;27639;48.674;9.242;2023-03-11T11:48:18;10.60;35.60
21502;DHT22;27639;48.674;9.242;2023-03-11T11:50:54;10.70;34.90
21502;DHT22;27639;48.674;9.242;2023-03-11T11:56:00;10.90;35.90
21502;DHT22;27639;48.674;9.242;2023-03-11T11:58:26;10.90;35.80
21502;DHT22;27639;48.674;9.242;2023-03-11T12:07:02;10.80;34.40
21502;DHT22;27639;48.674;9.242;2023-03-11T12:09:43;10.50;34.80
21502;DHT22;27639;48.674;9.242;2023-03-11T12:15:20;10.60;34.70
21502;DHT22;27639;48.674;9.242;2023-03-11T12:17:51;10.60;34.90
21502;DHT22;27639;48.674;9.242;2023-03-11T12:20:50;10.60;34.90
21502;DHT22;27639;48.674;9.242;2023-03-11T12:28:37;10.80;35.40
21502;DHT22;27639;48.674;9.242;2023-03-11T12:31:07;10.90;34.70
21502;DHT22;27639;48.674;9.242;2023-03-11T12:36:49;10.80;34.10
21502;DHT22;27639;48.674;9.242;2023-03-11T12:39:23;10.70;33.90
21502;DHT22;27639;48.674;9.242;2023-03-11T12:42:18;10.90;34.90
21502;DHT22;27639;48.674;9.242;2023-03-11T12:44:45;11.10;33.60
21502;DHT22;27639;48.674;9.242;2023-03-11T12:47:18;11.00;34.00
21502;DHT22;27639;48.674;9.242;2023-03-11T12:53:00;10.70;33.20
21502;DHT22;27639;48.674;9.242;2023-03-11T12:55:31;10.70;33.70
21502;DHT22;27639;48.674;9.242;2023-03-11T12:58:05;10.80;34.50
21502;DHT22;27639;48.674;9.242;2023-03-11T13:00:56;10.90;34.40
21502;DHT22;27639;48.674;9.242;2023-03-11T13:06:36;11.00;33.60
21502;DHT22;27639;48.674;9.242;2023-03-11T13:09:12;11.10;33.40
21502;DHT22;27639;48.674;9.242;2023-03-11T13:11:44;11.20;34.20
21502;DHT22;27639;48.674;9.242;2023-03-11T13:16:42;11.20;33.60
21502;DHT22;27639;48.674;9.242;2023-03-11T13:22:01;11.30;32.70
21502;DHT22;27639;48.674;9.242;2023-03-11T13:32:39;11.50;31.80
21502;DHT22;27639;48.674;9.242;2023-03-11T13:35:32;11.40;32.60
21502;DHT22;27639;48.674;9.242;2023-03-11T13:38:19;11.40;32.80
21502;DHT22;27639;48.674;9.242;2023-03-11T13:40:55;11.50;32.70
21502;DHT22;27639;48.674;9.242;2023-03-11T13:43:23;11.50;33.00
21502;DHT22;27639;48.674;9.242;2023-03-11T13:45:57;11.40;32.30
21502;DHT22;27639;48.674;9.242;2023-03-11T13:48:30;11.40;32.10
21502;DHT22;27639;48.674;9.242;2023-03-11T13:51:03;11.40;32.00
21502;DHT22;27639;48.674;9.242;2023-03-11T13:53:31;11.40;32.40
21502;DHT22;27639;48.674;9.242;2023-03-11T13:55:58;11.50;32.40
21502;DHT22;27639;48.674;9.242;2023-03-11T13:58:25;11.60;32.40
21502;DHT22;27639;48.674;9.242;2023-03-11T14:00:59;11.60;32.50
21502;DHT22;27639;48.674;9.242;2023-03-11T14:03:27;11.70;31.90
21502;DHT22;27639;48.674;9.242;2023-03-11T14:05:59;11.70;32.20
21502;DHT22;27639;48.674;9.242;2023-03-11T14:10:54;11.90;32.80
21502;DHT22;27639;48.674;9.242;2023-03-11T14:13:21;11.90;32.60
21502;DHT22;27639;48.674;9.242;2023-03-11T14:15:56;11.90;32.40
21502;DHT22;27639;48.674;9.242;2023-03-11T14:20:53;11.80;31.80
21502;DHT22;27639;48.674;9.242;2023-03-11T14:23:19;11.80;32.40
21502;DHT22;27639;48.674;9.242;2023-03-11T14:25:45;11.90;32.10
21502;DHT22;27639;48.674;9.242;2023-03-11T14:28:20;12.00;31.50
21502;DHT22;27639;48.674;9.242;2023-03-11T14:30:59;12.00;31.50
21502;DHT22;27639;48.674;9.242;2023-03-11T14:33:25;12.20;31.80
21502;DHT22;27639;48.674;9.242;2023-03-11T14:36:11;12.20;31.80
21502;DHT22;27639;48.674;9.242;2023-03-11T14:38:41;12.30;32.30
21502;DHT22;27639;48.674;9.242;2023-03-11T14:41:12;12.40;31.90
21502;DHT22;27639;48.674;9.242;2023-03-11T14:43:41;12.60;31.20
21502;DHT22;27639;48.674;9.242;2023-03-11T14:46:17;12.60;30.90
21502;DHT22;27639;48.674;9.242;2023-03-11T14:48:44;12.50;31.10
21502;DHT22;27639;48.674;9.242;2023-03-11T14:51:18;12.40;31.20
21502;DHT22;27639;48.674;9.242;2023-03-11T14:54:10;12.40;31.20
21502;DHT22;27639;48.674;9.242;2023-03-11T14:56:43;12.30;30.60
21502;DHT22;27639;48.674;9.242;2023-03-11T14:59:13;12.10;31.20
21502;DHT22;27639;48.674;9.242;2023-03-11T15:01:41;12.00;31.40
21502;DHT22;27639;48.674;9.242;2023-03-11T15:06:51;11.80;31.40
21502;DHT22;27639;48.674;9.242;2023-03-11T15:09:19;11.80;31.50
21502;DHT22;27639;48.674;9.242;2023-03-11T15:11:58;11.80;31.60
21502;DHT22;27639;48.674;9.242;2023-03-11T15:16:51;11.70;31.20
21502;DHT22;27639;48.674;9.242;2023-03-11T15:19:28;11.60;31.20
21502;DHT22;27639;48.674;9.242;2023-03-11T15:22:01;11.60;31.10
21502;DHT22;27639;48.674;9.242;2023-03-11T15:24:30;11.50;31.30
21502;DHT22;27639;48.674;9.242;2023-03-11T15:27:04;11.40;31.50
21502;DHT22;27639;48.674;9.242;2023-03-11T15:29:31;11.30;31.90
21502;DHT22;27639;48.674;9.242;2023-03-11T15:31:57;11.30;31.90
21502;DHT22;27639;48.674;9.242;2023-03-11T15:34:31;11.30;32.00
21502;DHT22;27639;48.674;9.242;2023-03-11T15:39:41;11.00;32.10
21502;DHT22;27639;48.674;9.242;2023-03-11T15:42:14;11.00;32.40
21502;DHT22;27639;48.674;9.242;2023-03-11T15:44:49;10.90;32.60
21502;DHT22;27639;48.674;9.242;2023-03-11T15:47:20;10.80;32.70
21502;DHT22;27639;48.674;9.242;2023-03-11T15:49:46;10.70;32.80
21502;DHT22;27639;48.674;9.242;2023-03-11T15:52:13;10.70;33.00
21502;DHT22;27639;48.674;9.242;2023-03-11T15:54:39;10.60;33.20
21502;DHT22;27639;48.674;9.242;2023-03-11T15:57:20;10.60;33.40
21502;DHT22;27639;48.674;9.242;2023-03-11T15:59:46;10.60;33.30
21502;DHT22;27639;48.674;9.242;2023-03-11T16:02:24;10.50;33.50
21502;DHT22;27639;48.674;9.242;2023-03-11T16:04:51;10.40;33.80
21502;DHT22;27639;48.674;9.242;2023-03-11T16:07:17;10.40;34.20
21502;DHT22;27639;48.674;9.242;2023-03-11T16:09:43;10.40;34.30
21502;DHT22;27639;48.674;9.242;2023-03-11T16:12:19;10.40;34.30
21502;DHT22;27639;48.674;9.242;2023-03-11T16:14:45;10.40;34.00
21502;DHT22;27639;48.674;9.242;2023-03-11T16:17:12;10.30;34.00
21502;DHT22;27639;48.674;9.242;2023-03-11T16:19:42;10.20;34.30
21502;DHT22;27639;48.674;9.242;2023-03-11T16:22:17;10.10;34.40
21502;DHT22;27639;48.674;9.242;2023-03-11T16:24:45;10.00;34.50
21502;DHT22;27639;48.674;9.242;2023-03-11T16:27:14;10.00;34.50
21502;DHT22;27639;48.674;9.242;2023-03-11T16:29:40;10.00;34.70
21502;DHT22;27639;48.674;9.242;2023-03-11T16:32:06;9.90;35.90
21502;DHT22;27639;48.674;9.242;2023-03-11T16:34:33;9.90;35.90
21502;DHT22;27639;48.674;9.242;2023-03-11T16:36:58;9.90;35.90
21502;DHT22;27639;48.674;9.242;2023-03-11T16:39:24;9.90;35.90
21502;DHT22;27639;48.674;9.242;2023-03-11T16:41:49;9.90;36.30
21502;DHT22;27639;48.674;9.242;2023-03-11T16:44:15;9.90;36.00
21502;DHT22;27639;48.674;9.242;2023-03-11T16:46:40;9.80;35.80
21502;DHT22;27639;48.674;9.242;2023-03-11T16:49:06;9.80;35.80
21502;DHT22;27639;48.674;9.242;2023-03-11T16:51:32;9.80;35.90
21502;DHT22;27639;48.674;9.242;2023-03-11T16:53:58;9.80;36.40
21502;DHT22;27639;48.674;9.242;2023-03-11T16:56:24;9.70;36.30
21502;DHT22;27639;48.674;9.242;2023-03-11T16:58:50;9.70;36.70
21502;DHT22;27639;48.674;9.242;2023-03-11T17:01:15;9.70;36.70
21502;DHT22;27639;48.674;9.242;2023-03-11T17:03:44;9.60;36.50
21502;DHT22;27639;48.674;9.242;2023-03-11T17:06:13;9.60;36.60
21502;DHT22;27639;48.674;9.242;2023-03-11T17:08:39;9.60;37.00
21502;DHT22;27639;48.674;9.242;2023-03-11T17:11:05;9.50;36.90
21502;DHT22;27639;48.674;9.242;2023-03-11T17:13:30;9.50;36.90
21502;DHT22;27639;48.674;9.242;2023-03-11T17:15:58;9.40;37.00
21502;DHT22;27639;48.674;9.242;2023-03-11T17:18:23;9.30;37.00
21502;DHT22;27639;48.674;9.242;2023-03-11T17:20:49;9.20;36.90
21502;DHT22;27639;48.674;9.242;2023-03-11T17:23:14;9.10;37.10
21502;DHT22;27639;48.674;9.242;2023-03-11T17:25:40;9.10;37.40